createdAt,value
2017-11-26T00:00:38.985Z,42.8
2017-11-26T00:01:47.868Z,42.89
2017-11-26T00:02:56.807Z,42.91
2017-11-26T00:04:05.735Z,42.89
2017-11-26T00:05:14.933Z,42.91
2017-11-26T00:06:23.902Z,42.91
2017-11-26T00:07:33.081Z,42.91
2017-11-26T00:08:42.009Z,43.01
2017-11-26T00:09:50.952Z,42.91
2017-11-26T00:10:59.872Z,42.89
2017-11-26T00:12:08.518Z,42.89
2017-11-26T00:13:17.446Z,42.89
2017-11-26T00:14:26.891Z,42.91
2017-11-26T00:15:35.532Z,42.91
2017-11-26T00:16:44.964Z,42.91
2017-11-26T00:17:53.615Z,42.72
2017-11-26T00:19:02.549Z,42.91
2017-11-26T00:20:11.211Z,42.91
2017-11-26T00:21:20.669Z,43.01
2017-11-26T00:22:29.858Z,42.91
2017-11-26T00:23:38.789Z,42.91
2017-11-26T00:24:48.008Z,42.91
2017-11-26T00:25:57.462Z,42.82
2017-11-26T00:27:06.942Z,43.01
2017-11-26T00:28:16.380Z,42.91
2017-11-26T00:29:25.897Z,42.82
2017-11-26T00:30:35.063Z,42.91
2017-11-26T00:31:44.034Z,42.82
2017-11-26T00:32:52.693Z,42.82
2017-11-26T00:34:01.884Z,42.72
2017-11-26T00:35:10.796Z,43.2
2017-11-26T00:36:20.022Z,42.91
2017-11-26T00:37:29.222Z,42.91
2017-11-26T00:38:38.403Z,43.2
2017-11-26T00:39:47.862Z,42.91
2017-11-26T00:40:56.782Z,43.2
2017-11-26T00:42:05.959Z,43.11
2017-11-26T00:43:15.133Z,43.11
2017-11-26T00:44:24.046Z,43.2
2017-11-26T00:45:32.964Z,43.2
2017-11-26T00:46:42.149Z,43.2
2017-11-26T00:47:51.100Z,43.11
2017-11-26T00:49:00.020Z,43.11
2017-11-26T00:50:08.953Z,43.01
2017-11-26T00:51:18.408Z,43.01
2017-11-26T00:52:27.321Z,43.11
2017-11-26T00:53:36.229Z,43.11
2017-11-26T00:54:44.907Z,43.2
2017-11-26T00:55:54.368Z,43.2
2017-11-26T00:57:03.556Z,43.2
2017-11-26T00:58:12.801Z,43.01
2017-11-26T00:59:22.357Z,43.2
2017-11-26T01:00:31.539Z,43.11
2017-11-26T01:01:40.282Z,42.82
2017-11-26T01:02:48.986Z,43.11
2017-11-26T01:03:57.890Z,43.11
2017-11-26T01:05:06.544Z,43.11
2017-11-26T01:06:15.205Z,43.11
2017-11-26T01:07:24.664Z,43.11
2017-11-26T01:08:33.595Z,43.11
2017-11-26T01:09:43.071Z,43.4
2017-11-26T01:10:52.247Z,43.4
2017-11-26T01:12:01.769Z,43.4
2017-11-26T01:13:10.682Z,43.4
2017-11-26T01:14:20.456Z,43.4
2017-11-26T01:15:29.382Z,43.11
2017-11-26T01:16:38.554Z,43.4
2017-11-26T01:17:47.466Z,42.91
2017-11-26T01:18:56.425Z,42.91
2017-11-26T01:20:05.349Z,43.4
2017-11-26T01:21:14.547Z,43.3
2017-11-26T01:22:24.002Z,43.4
2017-11-26T01:23:33.180Z,43.3
2017-11-26T01:24:42.377Z,43.4
2017-11-26T01:25:51.038Z,43.68
2017-11-26T01:27:00.218Z,43.68
2017-11-26T01:28:09.120Z,43.68
2017-11-26T01:29:18.336Z,43.78
2017-11-26T01:30:26.987Z,43.49
2017-11-26T01:31:36.164Z,43.4
2017-11-26T01:32:44.806Z,43.4
2017-11-26T01:33:54.001Z,43.68
2017-11-26T01:35:03.454Z,43.4
2017-11-26T01:36:12.643Z,43.78
2017-11-26T01:37:21.824Z,43.68
2017-11-26T01:38:31.037Z,43.49
2017-11-26T01:39:39.951Z,43.49
2017-11-26T01:40:48.875Z,43.49
2017-11-26T01:41:58.043Z,43.49
2017-11-26T01:43:07.217Z,43.59
2017-11-26T01:44:16.650Z,43.59
2017-11-26T01:45:25.573Z,43.59
2017-11-26T01:46:35.016Z,43.59
2017-11-26T01:47:44.181Z,43.49
2017-11-26T01:48:53.639Z,43.68
2017-11-26T01:50:02.574Z,43.59
2017-11-26T01:51:11.778Z,43.49
2017-11-26T01:52:21.215Z,43.49
2017-11-26T01:53:30.122Z,43.49
2017-11-26T01:54:39.563Z,43.59
2017-11-26T01:55:48.793Z,43.49
2017-11-26T01:56:58.218Z,43.68
2017-11-26T01:58:07.388Z,43.68
2017-11-26T01:59:16.565Z,43.49
2017-11-26T02:00:25.484Z,43.59
2017-11-26T02:01:34.656Z,43.59
2017-11-26T02:02:43.838Z,43.59
2017-11-26T02:03:53.457Z,43.68
2017-11-26T02:05:02.371Z,43.68
2017-11-26T02:06:11.013Z,43.68
2017-11-26T02:07:20.458Z,43.59
2017-11-26T02:08:29.642Z,43.49
2017-11-26T02:09:38.819Z,43.59
2017-11-26T02:10:47.719Z,43.49
2017-11-26T02:11:56.622Z,43.49
2017-11-26T02:13:06.057Z,43.59
2017-11-26T02:14:15.219Z,43.68
2017-11-26T02:15:24.421Z,43.59
2017-11-26T02:16:33.885Z,43.49
2017-11-26T02:17:43.063Z,43.49
2017-11-26T02:18:52.233Z,43.59
2017-11-26T02:20:01.166Z,43.59
2017-11-26T02:21:10.334Z,43.59
2017-11-26T02:22:19.797Z,43.49
2017-11-26T02:23:28.985Z,43.59
2017-11-26T02:24:38.160Z,43.59
2017-11-26T02:25:47.337Z,43.59
2017-11-26T02:26:56.821Z,43.59
2017-11-26T02:28:06.263Z,43.59
2017-11-26T02:29:15.165Z,43.59
2017-11-26T02:30:24.683Z,43.59
2017-11-26T02:31:34.385Z,43.49
2017-11-26T02:32:43.846Z,43.59
2017-11-26T02:33:52.780Z,43.59
2017-11-26T02:35:02.481Z,43.59
2017-11-26T02:36:11.389Z,43.59
2017-11-26T02:37:20.570Z,43.49
2017-11-26T02:38:30.019Z,43.49
2017-11-26T02:39:39.517Z,43.59
2017-11-26T02:40:48.444Z,43.59
2017-11-26T02:41:58.154Z,43.59
2017-11-26T02:43:07.335Z,43.59
2017-11-26T02:44:16.803Z,43.59
2017-11-26T02:45:25.467Z,43.59
2017-11-26T02:46:34.637Z,43.59
2017-11-26T02:47:43.834Z,43.59
2017-11-26T02:48:53.579Z,43.59
2017-11-26T02:50:02.513Z,43.49
2017-11-26T02:51:11.427Z,43.59
2017-11-26T02:52:20.646Z,43.59
2017-11-26T02:53:30.093Z,43.59
2017-11-26T02:54:39.280Z,43.49
2017-11-26T02:55:48.485Z,43.59
2017-11-26T02:56:57.664Z,43.59
2017-11-26T02:58:07.165Z,43.59
2017-11-26T02:59:16.374Z,43.59
2017-11-26T03:00:25.023Z,43.59
2017-11-26T03:01:34.207Z,43.49
2017-11-26T03:02:43.195Z,43.59
2017-11-26T03:03:52.657Z,43.49
2017-11-26T03:05:01.572Z,43.59
2017-11-26T03:06:11.265Z,43.59
2017-11-26T03:07:21.233Z,43.49
2017-11-26T03:08:30.139Z,43.59
2017-11-26T03:09:38.809Z,43.59
2017-11-26T03:10:47.483Z,43.49
2017-11-26T03:11:56.393Z,43.4
2017-11-26T03:13:05.577Z,43.59
2017-11-26T03:14:14.780Z,43.59
2017-11-26T03:15:23.963Z,43.59
2017-11-26T03:16:33.670Z,43.49
2017-11-26T03:17:42.593Z,43.59
2017-11-26T03:18:52.060Z,43.59
2017-11-26T03:20:01.231Z,43.49
2017-11-26T03:21:10.397Z,43.4
2017-11-26T03:22:19.567Z,43.49
2017-11-26T03:23:28.801Z,43.59
2017-11-26T03:24:37.757Z,43.59
2017-11-26T03:25:46.445Z,43.49
2017-11-26T03:26:55.349Z,43.4
2017-11-26T03:28:04.529Z,43.59
2017-11-26T03:29:13.979Z,43.59
2017-11-26T03:30:22.947Z,43.59
2017-11-26T03:31:32.147Z,43.49
2017-11-26T03:32:41.061Z,43.4
2017-11-26T03:33:49.981Z,43.4
2017-11-26T03:34:59.417Z,43.4
2017-11-26T03:36:08.399Z,43.49
2017-11-26T03:37:17.831Z,43.4
2017-11-26T03:38:26.517Z,43.4
2017-11-26T03:39:35.438Z,43.4
2017-11-26T03:40:44.372Z,43.49
2017-11-26T03:41:53.804Z,43.4
2017-11-26T03:43:02.967Z,43.49
2017-11-26T03:44:12.396Z,43.4
2017-11-26T03:45:21.328Z,43.49
2017-11-26T03:46:30.236Z,43.49
2017-11-26T03:47:39.138Z,43.59
2017-11-26T03:48:48.317Z,43.59
2017-11-26T03:49:57.517Z,43.4
2017-11-26T03:51:06.705Z,43.4
2017-11-26T03:52:15.637Z,43.4
2017-11-26T03:53:24.835Z,43.4
2017-11-26T03:54:33.793Z,43.4
2017-11-26T03:55:43.516Z,43.49
2017-11-26T03:56:52.698Z,43.49
2017-11-26T03:58:01.607Z,43.49
2017-11-26T03:59:10.802Z,43.4
2017-11-26T04:00:19.437Z,43.4
2017-11-26T04:01:28.352Z,43.49
2017-11-26T04:02:37.808Z,43.49
2017-11-26T04:03:47.007Z,43.49
2017-11-26T04:04:56.170Z,43.49
2017-11-26T04:06:05.085Z,43.49
2017-11-26T04:07:14.009Z,43.49
2017-11-26T04:08:23.453Z,43.4
2017-11-26T04:09:32.634Z,43.4
2017-11-26T04:10:41.338Z,43.4
2017-11-26T04:11:50.786Z,43.4
2017-11-26T04:12:59.979Z,43.49
2017-11-26T04:14:08.893Z,43.4
2017-11-26T04:15:17.792Z,43.49
2017-11-26T04:16:26.969Z,43.49
2017-11-26T04:17:35.905Z,43.49
2017-11-26T04:18:44.828Z,43.4
2017-11-26T04:19:53.746Z,43.59
2017-11-26T04:21:02.667Z,43.49
2017-11-26T04:22:12.125Z,43.49
2017-11-26T04:23:21.579Z,43.59
2017-11-26T04:24:30.786Z,43.49
2017-11-26T04:25:39.987Z,43.49
2017-11-26T04:26:48.913Z,43.4
2017-11-26T04:27:58.347Z,43.49
2017-11-26T04:29:07.266Z,43.49
2017-11-26T04:30:16.709Z,43.59
2017-11-26T04:31:25.610Z,43.49
2017-11-26T04:32:35.100Z,43.59
2017-11-26T04:33:44.861Z,43.4
2017-11-26T04:34:54.029Z,43.59
2017-11-26T04:36:03.503Z,43.49
2017-11-26T04:37:12.239Z,43.49
2017-11-26T04:38:21.978Z,43.59
2017-11-26T04:39:31.265Z,43.49
2017-11-26T04:40:40.188Z,43.59
2017-11-26T04:41:49.645Z,43.59
2017-11-26T04:42:59.118Z,43.59
2017-11-26T04:44:08.289Z,43.59
2017-11-26T04:45:17.226Z,43.59
2017-11-26T04:46:26.155Z,43.59
2017-11-26T04:47:35.596Z,43.59
2017-11-26T04:48:44.500Z,43.59
2017-11-26T04:49:53.680Z,43.59
2017-11-26T04:51:02.878Z,43.59
2017-11-26T04:52:12.061Z,43.68
2017-11-26T04:53:21.530Z,43.59
2017-11-26T04:54:30.433Z,43.59
2017-11-26T04:55:39.886Z,43.49
2017-11-26T04:56:49.077Z,43.59
2017-11-26T04:57:58.273Z,43.59
2017-11-26T04:59:07.733Z,43.59
2017-11-26T05:00:16.661Z,43.49
2017-11-26T05:01:25.865Z,43.49
2017-11-26T05:02:34.788Z,43.49
2017-11-26T05:03:43.475Z,43.68
2017-11-26T05:04:52.913Z,43.49
2017-11-26T05:06:01.836Z,43.68
2017-11-26T05:07:11.290Z,43.68
2017-11-26T05:08:20.237Z,43.49
2017-11-26T05:09:28.883Z,43.59
2017-11-26T05:10:37.798Z,43.59
2017-11-26T05:11:46.765Z,43.59
2017-11-26T05:12:55.939Z,43.59
2017-11-26T05:14:04.852Z,43.59
2017-11-26T05:15:14.302Z,43.59
2017-11-26T05:16:23.496Z,43.59
2017-11-26T05:17:32.698Z,43.59
2017-11-26T05:18:42.155Z,43.59
2017-11-26T05:19:51.074Z,43.59
2017-11-26T05:21:00.846Z,43.59
2017-11-26T05:22:09.767Z,43.59
2017-11-26T05:23:18.937Z,43.59
2017-11-26T05:24:27.943Z,43.59
2017-11-26T05:25:36.861Z,43.49
2017-11-26T05:26:46.026Z,43.68
2017-11-26T05:27:54.931Z,43.59
2017-11-26T05:29:04.366Z,43.59
2017-11-26T05:30:13.604Z,43.59
2017-11-26T05:31:23.032Z,43.59
2017-11-26T05:32:32.224Z,43.47
2017-11-26T05:33:41.592Z,43.59
2017-11-26T05:34:51.071Z,43.68
2017-11-26T05:35:59.989Z,43.57
2017-11-26T05:37:09.468Z,43.59
2017-11-26T05:38:18.436Z,43.59
2017-11-26T05:39:27.901Z,43.59
2017-11-26T05:40:36.846Z,43.59
2017-11-26T05:41:46.064Z,43.59
2017-11-26T05:42:55.264Z,43.49
2017-11-26T05:44:04.202Z,43.47
2017-11-26T05:45:13.108Z,43.59
2017-11-26T05:46:22.566Z,43.49
2017-11-26T05:47:32.014Z,43.59
2017-11-26T05:48:41.239Z,43.59
2017-11-26T05:49:50.412Z,43.49
2017-11-26T05:51:00.112Z,43.59
2017-11-26T05:52:09.013Z,43.49
2017-11-26T05:53:17.656Z,43.57
2017-11-26T05:54:26.566Z,43.59
2017-11-26T05:55:35.527Z,43.49
2017-11-26T05:56:44.434Z,43.78
2017-11-26T05:57:53.908Z,43.59
2017-11-26T05:59:02.854Z,43.59
2017-11-26T06:00:12.041Z,43.49
2017-11-26T06:01:21.222Z,43.49
2017-11-26T06:02:30.402Z,43.49
2017-11-26T06:03:39.327Z,43.3
2017-11-26T06:04:47.996Z,43.57
2017-11-26T06:05:56.931Z,43.59
2017-11-26T06:07:06.110Z,43.68
2017-11-26T06:08:15.017Z,43.78
2017-11-26T06:09:24.461Z,43.78
2017-11-26T06:10:33.384Z,43.49
2017-11-26T06:11:42.847Z,43.78
2017-11-26T06:12:52.029Z,43.49
2017-11-26T06:14:01.468Z,43.49
2017-11-26T06:15:10.394Z,43.4
2017-11-26T06:16:19.585Z,43.37
2017-11-26T06:17:29.454Z,43.37
2017-11-26T06:18:38.371Z,43.4
2017-11-26T06:19:47.287Z,43.01
2017-11-26T06:20:56.202Z,43.4
2017-11-26T06:22:05.108Z,43.2
2017-11-26T06:23:14.546Z,43.08
2017-11-26T06:24:23.708Z,43.08
2017-11-26T06:25:32.880Z,43.2
2017-11-26T06:26:41.808Z,43.01
2017-11-26T06:27:50.976Z,42.82
2017-11-26T06:28:59.899Z,43.08
2017-11-26T06:30:08.842Z,42.91
2017-11-26T06:31:18.329Z,43.11
2017-11-26T06:32:27.979Z,43.2
2017-11-26T06:33:36.898Z,43.01
2017-11-26T06:34:46.356Z,43.11
2017-11-26T06:35:55.290Z,43.11
2017-11-26T06:37:04.472Z,42.82
2017-11-26T06:38:13.655Z,43.2
2017-11-26T06:39:23.104Z,43.08
2017-11-26T06:40:32.290Z,43.11
2017-11-26T06:41:41.749Z,43.11
2017-11-26T06:42:50.652Z,43.2
2017-11-26T06:43:59.852Z,42.89
2017-11-26T06:45:08.769Z,43.3
2017-11-26T06:46:18.250Z,43.28
2017-11-26T06:47:27.700Z,43.11
2017-11-26T06:48:36.880Z,42.82
2017-11-26T06:49:45.801Z,42.91
2017-11-26T06:50:55.011Z,42.82
2017-11-26T06:52:04.489Z,42.72
2017-11-26T06:53:13.670Z,42.91
2017-11-26T06:54:22.861Z,43.01
2017-11-26T06:55:31.776Z,43.01
2017-11-26T06:56:40.689Z,42.91
2017-11-26T06:57:50.134Z,42.89
2017-11-26T06:58:59.592Z,43.01
2017-11-26T07:00:08.768Z,42.91
2017-11-26T07:01:17.964Z,42.91
2017-11-26T07:02:27.142Z,42.91
2017-11-26T07:03:36.593Z,42.82
2017-11-26T07:04:45.249Z,43.01
2017-11-26T07:05:54.183Z,42.91
2017-11-26T07:07:03.112Z,43.01
2017-11-26T07:08:11.759Z,42.99
2017-11-26T07:09:21.209Z,43.01
2017-11-26T07:10:30.640Z,43.11
2017-11-26T07:11:39.810Z,43.01
2017-11-26T07:12:48.977Z,43.01
2017-11-26T07:13:57.914Z,42.91
2017-11-26T07:15:07.136Z,42.82
2017-11-26T07:16:16.354Z,43.01
2017-11-26T07:17:25.534Z,42.82
2017-11-26T07:18:34.464Z,43.01
2017-11-26T07:19:43.376Z,42.72
2017-11-26T07:20:52.550Z,42.72
2017-11-26T07:22:01.722Z,42.72
2017-11-26T07:23:11.154Z,42.82
2017-11-26T07:24:20.325Z,42.82
2017-11-26T07:25:29.499Z,42.82
2017-11-26T07:26:38.952Z,42.82
2017-11-26T07:27:48.677Z,42.82
2017-11-26T07:28:57.587Z,42.72
2017-11-26T07:30:06.773Z,42.72
2017-11-26T07:31:16.488Z,42.82
2017-11-26T07:32:25.937Z,42.72
2017-11-26T07:33:35.124Z,42.63
2017-11-26T07:34:44.293Z,42.63
2017-11-26T07:35:53.751Z,42.63
2017-11-26T07:37:03.188Z,43.01
2017-11-26T07:38:12.086Z,42.63
2017-11-26T07:39:21.260Z,43.01
2017-11-26T07:40:30.446Z,43.11
2017-11-26T07:41:39.363Z,43.01
2017-11-26T07:42:48.290Z,43.01
2017-11-26T07:43:57.712Z,43.01
2017-11-26T07:45:07.048Z,43.01
2017-11-26T07:46:15.956Z,43.01
2017-11-26T07:47:25.119Z,43.01
2017-11-26T07:48:33.772Z,43.01
2017-11-26T07:49:43.195Z,43.01
2017-11-26T07:50:52.373Z,43.01
2017-11-26T07:52:01.337Z,42.72
2017-11-26T07:53:10.240Z,42.72
2017-11-26T07:54:19.445Z,42.53
2017-11-26T07:55:28.611Z,42.72
2017-11-26T07:56:37.935Z,42.63
2017-11-26T07:57:46.841Z,42.72
2017-11-26T07:58:55.479Z,42.63
2017-11-26T08:00:04.376Z,42.72
2017-11-26T08:01:13.278Z,42.63
2017-11-26T08:02:21.924Z,42.72
2017-11-26T08:03:31.083Z,42.72
2017-11-26T08:04:40.513Z,42.72
2017-11-26T08:05:49.682Z,42.72
2017-11-26T08:06:59.391Z,42.72
2017-11-26T08:08:08.815Z,42.72
2017-11-26T08:09:18.520Z,42.63
2017-11-26T08:10:27.694Z,42.82
2017-11-26T08:11:36.645Z,42.82
2017-11-26T08:12:45.596Z,42.72
2017-11-26T08:13:55.030Z,42.72
2017-11-26T08:15:04.260Z,42.82
2017-11-26T08:16:13.153Z,42.63
2017-11-26T08:17:22.881Z,42.72
2017-11-26T08:18:32.035Z,42.63
2017-11-26T08:19:41.230Z,42.53
2017-11-26T08:20:50.392Z,42.63
2017-11-26T08:21:59.847Z,42.63
2017-11-26T08:23:08.746Z,42.63
2017-11-26T08:24:17.656Z,42.72
2017-11-26T08:25:26.822Z,42.63
2017-11-26T08:26:35.711Z,42.72
2017-11-26T08:27:45.165Z,42.72
2017-11-26T08:28:54.056Z,42.63
2017-11-26T08:30:02.696Z,42.63
2017-11-26T08:31:11.351Z,42.72
2017-11-26T08:32:20.501Z,42.53
2017-11-26T08:33:29.409Z,42.53
2017-11-26T08:34:38.325Z,42.63
2017-11-26T08:35:47.480Z,42.43
2017-11-26T08:36:56.397Z,42.53
2017-11-26T08:38:05.588Z,42.63
2017-11-26T08:39:14.221Z,42.33
2017-11-26T08:40:23.923Z,42.53
2017-11-26T08:41:33.125Z,42.33
2017-11-26T08:42:42.019Z,42.53
2017-11-26T08:43:51.190Z,42.33
2017-11-26T08:45:00.796Z,42.33
2017-11-26T08:46:10.266Z,42.53
2017-11-26T08:47:19.733Z,42.24
2017-11-26T08:48:28.419Z,42.33
2017-11-26T08:49:37.316Z,42.05
2017-11-26T08:50:46.635Z,42.33
2017-11-26T08:51:55.548Z,42.43
2017-11-26T08:53:04.726Z,42.53
2017-11-26T08:54:13.901Z,42.33
2017-11-26T08:55:23.640Z,42.05
2017-11-26T08:56:32.803Z,42.05
2017-11-26T08:57:41.962Z,42.24
2017-11-26T08:58:50.642Z,42.43
2017-11-26T08:59:59.556Z,42.43
2017-11-26T09:01:09.773Z,42.05
2017-11-26T09:02:18.670Z,42.24
2017-11-26T09:03:27.593Z,41.95
2017-11-26T09:04:37.023Z,42.05
2017-11-26T09:05:46.204Z,41.95
2017-11-26T09:06:55.624Z,41.86
2017-11-26T09:08:04.802Z,41.88
2017-11-26T09:09:13.813Z,41.59
2017-11-26T09:10:23.350Z,41.88
2017-11-26T09:11:32.443Z,41.59
2017-11-26T09:12:41.442Z,41.59
2017-11-26T09:13:51.945Z,41.3
2017-11-26T09:15:00.849Z,41.11
2017-11-26T09:16:10.481Z,41.03
2017-11-26T09:17:19.671Z,40.94
2017-11-26T09:18:28.874Z,40.64
2017-11-26T09:19:37.797Z,40.64
2017-11-26T09:20:47.277Z,40.45
2017-11-26T09:21:56.444Z,40.55
2017-11-26T09:23:05.246Z,40.55
2017-11-26T09:24:14.972Z,40.74
2017-11-26T09:25:23.609Z,40.28
2017-11-26T09:26:32.541Z,40.19
2017-11-26T09:27:41.444Z,40.37
2017-11-26T09:28:50.627Z,40.28
2017-11-26T09:29:59.534Z,40.28
2017-11-26T09:31:08.452Z,40.57
2017-11-26T09:32:17.355Z,40.09
2017-11-26T09:33:27.074Z,39.7
2017-11-26T09:34:36.802Z,39.89
2017-11-26T09:35:45.702Z,39.89
2017-11-26T09:36:54.333Z,39.79
2017-11-26T09:38:03.543Z,39.24
2017-11-26T09:39:12.449Z,39.53
2017-11-26T09:40:21.659Z,39.43
2017-11-26T09:41:30.860Z,38.95
2017-11-26T09:42:39.765Z,39.04
2017-11-26T09:43:48.476Z,38.87
2017-11-26T09:44:57.940Z,39.45
2017-11-26T09:46:07.468Z,39.26
2017-11-26T09:47:16.406Z,39.16
2017-11-26T09:48:25.092Z,38.97
2017-11-26T09:49:34.103Z,38.68
2017-11-26T09:50:43.301Z,38.68
2017-11-26T09:51:52.466Z,38.58
2017-11-26T09:53:01.360Z,38.58
2017-11-26T09:54:10.301Z,38.58
2017-11-26T09:55:19.499Z,38.7
2017-11-26T09:56:28.150Z,38.79
2017-11-26T09:57:37.058Z,39.09
2017-11-26T09:58:45.982Z,38.99
2017-11-26T09:59:54.925Z,39.09
2017-11-26T10:01:04.145Z,39.37
2017-11-26T10:02:13.492Z,39.47
2017-11-26T10:03:22.710Z,39.28
2017-11-26T10:04:31.634Z,39.28
2017-11-26T10:05:41.070Z,39.18
2017-11-26T10:06:50.545Z,38.99
2017-11-26T10:08:00.005Z,39.09
2017-11-26T10:09:09.188Z,39.28
2017-11-26T10:10:18.396Z,39.37
2017-11-26T10:11:27.832Z,39.54
2017-11-26T10:12:37.403Z,39.54
2017-11-26T10:13:47.031Z,39.26
2017-11-26T10:14:56.206Z,39.54
2017-11-26T10:16:05.383Z,39.74
2017-11-26T10:17:14.313Z,39.74
2017-11-26T10:18:23.554Z,39.94
2017-11-26T10:19:32.744Z,39.94
2017-11-26T10:20:41.960Z,39.84
2017-11-26T10:21:50.620Z,39.84
2017-11-26T10:22:59.539Z,39.94
2017-11-26T10:24:09.025Z,40.03
2017-11-26T10:25:18.229Z,40.03
2017-11-26T10:26:27.131Z,40.12
2017-11-26T10:27:36.313Z,40.03
2017-11-26T10:28:45.821Z,40.03
2017-11-26T10:29:55.022Z,39.94
2017-11-26T10:31:04.204Z,39.64
2017-11-26T10:32:13.098Z,40.03
2017-11-26T10:33:22.289Z,40.53
2017-11-26T10:34:31.453Z,40.9
2017-11-26T10:35:40.154Z,42.13
2017-11-26T10:36:48.831Z,42.96
2017-11-26T10:37:58.089Z,44.67
2017-11-26T10:39:07.519Z,45.61
2017-11-26T10:40:18.589Z,46.53
2017-11-26T10:41:28.119Z,46.89
2017-11-26T10:42:37.767Z,48.23
2017-11-26T10:43:48.099Z,48.69
2017-11-26T10:44:57.230Z,48.66
2017-11-26T10:46:05.908Z,49.72
2017-11-26T10:47:15.068Z,49.79
2017-11-26T10:48:24.258Z,50.37
2017-11-26T10:49:33.708Z,50.53
2017-11-26T10:50:42.867Z,50.34
2017-11-26T10:51:52.027Z,51.18
2017-11-26T10:53:00.666Z,51.08
2017-11-26T10:54:09.330Z,51.56
2017-11-26T10:55:18.221Z,51.44
2017-11-26T10:56:27.161Z,51.34
2017-11-26T10:57:36.071Z,51.73
2017-11-26T10:58:44.992Z,51.54
2017-11-26T10:59:54.439Z,50.96
2017-11-26T11:01:03.890Z,49.91
2017-11-26T11:02:12.826Z,49.65
2017-11-26T11:03:22.286Z,48.33
2017-11-26T11:04:31.483Z,47.87
2017-11-26T11:05:40.673Z,47.01
2017-11-26T11:06:50.590Z,46.34
2017-11-26T11:08:00.603Z,45.88
2017-11-26T11:09:09.813Z,45.23
2017-11-26T11:10:18.735Z,44.56
2017-11-26T11:11:27.398Z,44.65
2017-11-26T11:12:36.376Z,43.81
2017-11-26T11:13:45.284Z,43.71
2017-11-26T11:14:54.214Z,43.54
2017-11-26T11:16:03.677Z,43.16
2017-11-26T11:17:12.586Z,42.97
2017-11-26T11:18:22.026Z,42.68
2017-11-26T11:19:31.472Z,42.41
2017-11-26T11:20:40.933Z,42.03
2017-11-26T11:21:50.130Z,41.83
2017-11-26T11:22:59.341Z,41.83
2017-11-26T11:24:08.300Z,41.66
2017-11-26T11:25:17.206Z,41.66
2017-11-26T11:26:26.097Z,41.18
2017-11-26T11:27:35.062Z,41.08
2017-11-26T11:28:43.963Z,40.72
2017-11-26T11:29:53.126Z,40.81
2017-11-26T11:31:02.314Z,40.63
2017-11-26T11:32:11.479Z,40.63
2017-11-26T11:33:20.659Z,40.63
2017-11-26T11:34:29.563Z,40.43
2017-11-26T11:35:38.727Z,40.63
2017-11-26T11:36:47.927Z,40.64
2017-11-26T11:37:57.169Z,40.36
2017-11-26T11:39:06.583Z,40.26
2017-11-26T11:40:15.508Z,40.26
2017-11-26T11:41:24.686Z,40.55
2017-11-26T11:42:33.611Z,40.55
2017-11-26T11:43:42.499Z,40.55
2017-11-26T11:44:51.756Z,39.87
2017-11-26T11:46:01.235Z,40.16
2017-11-26T11:47:11.994Z,39.61
2017-11-26T11:48:23.674Z,39.7
2017-11-26T11:49:33.392Z,39.89
2017-11-26T11:50:42.839Z,39.99
2017-11-26T11:51:52.042Z,39.79
2017-11-26T11:53:00.961Z,39.89
2017-11-26T11:54:09.872Z,39.79
2017-11-26T11:55:19.323Z,39.79
2017-11-26T11:56:28.575Z,39.89
2017-11-26T11:57:38.038Z,39.79
2017-11-26T11:58:47.227Z,39.79
2017-11-26T11:59:56.924Z,39.89
2017-11-26T12:01:06.360Z,39.89
2017-11-26T12:02:15.290Z,39.89
2017-11-26T12:03:24.198Z,39.61
2017-11-26T12:04:33.118Z,39.7
2017-11-26T12:05:42.318Z,40.09
2017-11-26T12:06:51.525Z,40.57
2017-11-26T12:08:00.458Z,40.57
2017-11-26T12:09:09.117Z,40.28
2017-11-26T12:10:18.292Z,40.37
2017-11-26T12:11:27.465Z,40.28
2017-11-26T12:12:36.673Z,40.37
2017-11-26T12:13:45.343Z,40.28
2017-11-26T12:14:54.529Z,40.19
2017-11-26T12:16:03.172Z,40.66
2017-11-26T12:17:12.363Z,40.66
2017-11-26T12:18:21.849Z,40.76
2017-11-26T12:19:31.008Z,40.66
2017-11-26T12:20:39.913Z,40.76
2017-11-26T12:21:49.093Z,40.76
2017-11-26T12:22:58.027Z,40.47
2017-11-26T12:24:06.672Z,40.37
2017-11-26T12:25:15.621Z,40.57
2017-11-26T12:26:25.116Z,40.57
2017-11-26T12:27:34.326Z,40.57
2017-11-26T12:28:43.493Z,40.76
2017-11-26T12:29:52.931Z,40.66
2017-11-26T12:31:01.853Z,40.66
2017-11-26T12:32:11.060Z,40.57
2017-11-26T12:33:19.971Z,40.57
2017-11-26T12:34:29.148Z,40.57
2017-11-26T12:35:38.045Z,40.47
2017-11-26T12:36:47.739Z,40.66
2017-11-26T12:37:57.194Z,40.86
2017-11-26T12:39:05.847Z,40.76
2017-11-26T12:40:15.105Z,40.66
2017-11-26T12:41:24.279Z,40.76
2017-11-26T12:42:33.976Z,40.76
2017-11-26T12:43:43.233Z,40.57
2017-11-26T12:44:52.148Z,40.95
2017-11-26T12:46:01.845Z,40.95
2017-11-26T12:47:11.032Z,40.74
2017-11-26T12:48:19.689Z,40.86
2017-11-26T12:49:28.916Z,40.86
2017-11-26T12:50:37.819Z,40.76
2017-11-26T12:51:47.241Z,40.86
2017-11-26T12:52:56.151Z,40.95
2017-11-26T12:54:04.787Z,41.05
2017-11-26T12:55:13.961Z,40.94
2017-11-26T12:56:22.599Z,40.86
2017-11-26T12:57:32.079Z,41.05
2017-11-26T12:58:40.715Z,40.95
2017-11-26T12:59:49.614Z,40.94
2017-11-26T13:00:58.545Z,40.86
2017-11-26T13:02:07.735Z,40.94
2017-11-26T13:03:16.932Z,41.13
2017-11-26T13:04:26.380Z,41.03
2017-11-26T13:05:35.546Z,41.03
2017-11-26T13:06:45.001Z,41.32
2017-11-26T13:07:54.200Z,41.22
2017-11-26T13:09:02.832Z,41.22
2017-11-26T13:10:11.748Z,41.13
2017-11-26T13:11:20.996Z,41.32
2017-11-26T13:12:30.148Z,41.13
2017-11-26T13:13:39.091Z,41.22
2017-11-26T13:14:48.561Z,41.13
2017-11-26T13:15:57.735Z,41.32
2017-11-26T13:17:06.933Z,41.13
2017-11-26T13:18:16.085Z,41.22
2017-11-26T13:19:25.265Z,41.32
2017-11-26T13:20:34.451Z,41.32
2017-11-26T13:21:43.344Z,41.22
2017-11-26T13:22:52.534Z,41.22
2017-11-26T13:24:01.476Z,41.32
2017-11-26T13:25:11.721Z,41.32
2017-11-26T13:26:21.006Z,41.22
2017-11-26T13:27:30.180Z,41.41
2017-11-26T13:28:39.626Z,41.71
2017-11-26T13:29:48.788Z,41.89
2017-11-26T13:30:57.997Z,41.61
2017-11-26T13:32:06.923Z,41.71
2017-11-26T13:33:16.085Z,41.71
2017-11-26T13:34:25.798Z,41.61
2017-11-26T13:35:35.006Z,41.61
2017-11-26T13:36:43.950Z,41.61
2017-11-26T13:37:53.399Z,41.61
2017-11-26T13:39:02.082Z,41.61
2017-11-26T13:40:10.741Z,41.51
2017-11-26T13:41:19.684Z,41.51
2017-11-26T13:42:29.289Z,41.51
2017-11-26T13:43:38.481Z,41.51
2017-11-26T13:44:47.133Z,41.8
2017-11-26T13:45:56.357Z,41.99
2017-11-26T13:47:05.534Z,41.99
2017-11-26T13:48:14.493Z,41.61
2017-11-26T13:49:23.676Z,41.61
2017-11-26T13:50:32.326Z,41.61
2017-11-26T13:51:41.764Z,41.61
2017-11-26T13:52:50.409Z,41.8
2017-11-26T13:53:59.317Z,41.8
2017-11-26T13:55:09.024Z,41.71
2017-11-26T13:56:18.393Z,41.61
2017-11-26T13:57:27.865Z,41.71
2017-11-26T13:58:37.702Z,41.71
2017-11-26T13:59:46.604Z,41.71
2017-11-26T14:00:55.772Z,41.8
2017-11-26T14:02:05.192Z,41.71
2017-11-26T14:03:13.847Z,41.71
2017-11-26T14:04:23.032Z,41.61
2017-11-26T14:05:32.492Z,41.8
2017-11-26T14:06:41.925Z,41.71
2017-11-26T14:07:51.352Z,41.8
2017-11-26T14:09:00.258Z,41.71
2017-11-26T14:10:09.696Z,41.71
2017-11-26T14:11:18.893Z,41.71
2017-11-26T14:12:28.599Z,41.8
2017-11-26T14:13:37.771Z,41.8
2017-11-26T14:14:46.681Z,41.71
2017-11-26T14:15:55.848Z,41.8
2017-11-26T14:17:05.034Z,41.78
2017-11-26T14:18:14.201Z,41.8
2017-11-26T14:19:23.651Z,41.71
2017-11-26T14:20:32.860Z,41.51
2017-11-26T14:21:42.052Z,41.71
2017-11-26T14:22:50.965Z,41.68
2017-11-26T14:23:59.862Z,41.99
2017-11-26T14:25:09.284Z,42.09
2017-11-26T14:26:18.198Z,41.99
2017-11-26T14:27:27.636Z,41.8
2017-11-26T14:28:36.851Z,41.89
2017-11-26T14:29:46.307Z,41.89
2017-11-26T14:30:55.239Z,42.07
2017-11-26T14:32:04.703Z,41.78
2017-11-26T14:33:14.145Z,41.8
2017-11-26T14:34:23.071Z,41.51
2017-11-26T14:35:32.786Z,42.16
2017-11-26T14:36:42.210Z,41.68
2017-11-26T14:37:51.126Z,41.97
2017-11-26T14:39:00.571Z,42.07
2017-11-26T14:40:09.774Z,42.07
2017-11-26T14:41:18.431Z,42.07
2017-11-26T14:42:27.863Z,41.88
2017-11-26T14:43:37.034Z,42.07
2017-11-26T14:44:45.938Z,41.88
2017-11-26T14:45:54.635Z,41.97
2017-11-26T14:47:04.103Z,41.97
2017-11-26T14:48:13.817Z,41.88
2017-11-26T14:49:23.284Z,41.88
2017-11-26T14:50:32.237Z,41.97
2017-11-26T14:51:41.165Z,41.97
2017-11-26T14:52:50.112Z,42.07
2017-11-26T14:53:59.082Z,41.88